KCRP/CRP METAR and TAF weather

Enter ICAO airport designator
Station Type Date Time Source
KCRP METAR 2019/08/22 02:51 UTC NOAA

KCRP 220251Z 13012G19KT 10SM FEW022 FEW200 FEW250 29/24 A2994 RMK AO2 SLP137 T02940244 51007


Station Type Date Time Source
KCRP Decoded METAR 2019/08/22 02:51 UTC NOAA

Station name not available
Aug 21, 2019 - 10:51 PM EDT / 2019.08.22 0251 UTC
Wind: from the SE (130 degrees) at 14 MPH (12 KT) gusting to 22 MPH (19 KT):0
Visibility: 10 mile(s):0
Sky conditions: mostly clear
Temperature: 84.9 F (29.4 C)
Dew Point: 75.9 F (24.4 C)
Relative Humidity: 74%
Pressure (altimeter): 29.94 in. Hg (1013 hPa)
Pressure tendency: 0.02 inches (0.7 hPa) higher than three hours ago
ob: KCRP 220251Z 13012G19KT 10SM FEW022 FEW200 FEW250 29/24 A2994 RMK AO2 SLP137 T02940244 51007
cycle: 3

Station Type Date Time Source
KCRP TAF 2019/08/21 18:30 UTC NOAA

TAF KCRP 211727Z 2118/2218 14013G22KT P6SM FEW035 BKN250
FM220200 16007KT P6SM SCT025 BKN250

Example: see airport list